sensor_id;sensor_type;location;lat;lon;timestamp;pressure;altitude;pressure_sealevel;temperature;humidity
79242;BME280;68670;48.720;9.118;2023-04-06T00:02:15;97047.75;;;0.67;59.93
79242;BME280;68670;48.720;9.118;2023-04-06T00:04:41;97048.84;;;0.58;61.62
79242;BME280;68670;48.720;9.118;2023-04-06T00:07:06;97048.34;;;0.54;63.22
79242;BME280;68670;48.720;9.118;2023-04-06T00:09:31;97050.38;;;0.52;62.41
79242;BME280;68670;48.720;9.118;2023-04-06T00:11:59;97046.16;;;0.58;60.82
79242;BME280;68670;48.720;9.118;2023-04-06T00:14:25;97039.59;;;0.52;59.47
79242;BME280;68670;48.720;9.118;2023-04-06T00:16:50;97040.56;;;0.59;63.00
79242;BME280;68670;48.720;9.118;2023-04-06T00:19:16;97025.19;;;0.68;60.77
79242;BME280;68670;48.720;9.118;2023-04-06T00:21:41;97038.41;;;0.55;62.36
79242;BME280;68670;48.720;9.118;2023-04-06T00:24:07;97039.22;;;0.32;60.49
79242;BME280;68670;48.720;9.118;2023-04-06T00:26:32;97038.47;;;0.39;60.99
79242;BME280;68670;48.720;9.118;2023-04-06T00:28:57;97041.28;;;0.53;60.29
79242;BME280;68670;48.720;9.118;2023-04-06T00:31:24;97025.78;;;0.55;59.40
79242;BME280;68670;48.720;9.118;2023-04-06T00:33:51;97034.53;;;0.57;62.01
79242;BME280;68670;48.720;9.118;2023-04-06T00:36:19;97029.16;;;0.49;59.37
79242;BME280;68670;48.720;9.118;2023-04-06T00:38:47;97027.13;;;0.51;59.75
79242;BME280;68670;48.720;9.118;2023-04-06T00:41:12;97022.09;;;0.48;59.53
79242;BME280;68670;48.720;9.118;2023-04-06T00:43:40;97016.44;;;0.35;60.08
79242;BME280;68670;48.720;9.118;2023-04-06T00:46:05;97021.78;;;0.43;59.85
79242;BME280;68670;48.720;9.118;2023-04-06T00:48:33;97014.69;;;0.50;59.72
79242;BME280;68670;48.720;9.118;2023-04-06T00:51:01;97017.53;;;0.26;60.03
79242;BME280;68670;48.720;9.118;2023-04-06T00:53:26;97024.16;;;0.38;59.97
79242;BME280;68670;48.720;9.118;2023-04-06T00:55:52;97020.44;;;0.47;59.71
79242;BME280;68670;48.720;9.118;2023-04-06T00:58:19;97024.84;;;0.40;61.34
79242;BME280;68670;48.720;9.118;2023-04-06T01:00:45;97009.38;;;0.34;59.79
79242;BME280;68670;48.720;9.118;2023-04-06T01:03:10;97010.59;;;0.31;59.75
79242;BME280;68670;48.720;9.118;2023-04-06T01:05:36;97007.00;;;0.39;61.17
79242;BME280;68670;48.720;9.118;2023-04-06T01:08:06;97009.63;;;0.24;60.71
79242;BME280;68670;48.720;9.118;2023-04-06T01:10:31;97008.97;;;0.14;60.10
79242;BME280;68670;48.720;9.118;2023-04-06T01:12:56;97004.44;;;0.15;60.75
79242;BME280;68670;48.720;9.118;2023-04-06T01:15:22;97005.44;;;0.14;61.51
79242;BME280;68670;48.720;9.118;2023-04-06T01:17:48;97002.94;;;0.04;61.88
79242;BME280;68670;48.720;9.118;2023-04-06T01:20:14;97008.22;;;-0.03;62.19
79242;BME280;68670;48.720;9.118;2023-04-06T01:22:39;97006.59;;;-0.20;63.69
79242;BME280;68670;48.720;9.118;2023-04-06T01:25:08;97011.69;;;-0.33;64.67
79242;BME280;68670;48.720;9.118;2023-04-06T01:27:34;97006.81;;;-0.38;65.16
79242;BME280;68670;48.720;9.118;2023-04-06T01:29:59;97011.38;;;-0.46;64.90
79242;BME280;68670;48.720;9.118;2023-04-06T01:32:25;97008.19;;;-0.58;65.03
79242;BME280;68670;48.720;9.118;2023-04-06T01:34:52;97006.69;;;-0.60;64.55
79242;BME280;68670;48.720;9.118;2023-04-06T01:37:18;96999.97;;;-0.64;66.41
79242;BME280;68670;48.720;9.118;2023-04-06T01:39:44;97002.13;;;-0.44;66.34
79242;BME280;68670;48.720;9.118;2023-04-06T01:42:10;97006.16;;;-0.40;64.36
79242;BME280;68670;48.720;9.118;2023-04-06T01:44:37;96997.91;;;-0.46;65.72
79242;BME280;68670;48.720;9.118;2023-04-06T01:47:03;96990.19;;;-0.49;63.50
79242;BME280;68670;48.720;9.118;2023-04-06T01:49:31;96993.56;;;-0.47;63.04
79242;BME280;68670;48.720;9.118;2023-04-06T01:52:01;96996.59;;;-0.58;62.80
79242;BME280;68670;48.720;9.118;2023-04-06T01:54:29;96986.16;;;-0.45;63.23
79242;BME280;68670;48.720;9.118;2023-04-06T01:56:54;96985.47;;;-0.39;62.06
79242;BME280;68670;48.720;9.118;2023-04-06T01:59:20;96988.81;;;-0.37;63.88
79242;BME280;68670;48.720;9.118;2023-04-06T02:01:48;96988.66;;;-0.36;63.84
79242;BME280;68670;48.720;9.118;2023-04-06T02:04:16;96986.31;;;-0.39;64.61
79242;BME280;68670;48.720;9.118;2023-04-06T02:06:43;96981.94;;;-0.40;64.19
79242;BME280;68670;48.720;9.118;2023-04-06T02:09:08;96982.09;;;-0.41;64.22
79242;BME280;68670;48.720;9.118;2023-04-06T02:11:36;96982.47;;;-0.52;63.25
79242;BME280;68670;48.720;9.118;2023-04-06T02:14:04;96982.44;;;-0.44;63.98
79242;BME280;68670;48.720;9.118;2023-04-06T02:16:30;96978.94;;;-0.53;63.89
79242;BME280;68670;48.720;9.118;2023-04-06T02:18:55;96979.13;;;-0.62;66.38
79242;BME280;68670;48.720;9.118;2023-04-06T02:21:23;96979.09;;;-0.54;64.84
79242;BME280;68670;48.720;9.118;2023-04-06T02:23:52;96987.50;;;-0.57;64.04
79242;BME280;68670;48.720;9.118;2023-04-06T02:26:18;96987.50;;;-0.57;64.10
79242;BME280;68670;48.720;9.118;2023-04-06T02:28:46;96979.28;;;-0.56;65.32
79242;BME280;68670;48.720;9.118;2023-04-06T02:31:11;96978.78;;;-0.59;64.65
79242;BME280;68670;48.720;9.118;2023-04-06T02:33:37;96980.47;;;-0.58;64.19
79242;BME280;68670;48.720;9.118;2023-04-06T02:36:03;96977.44;;;-0.63;64.68
79242;BME280;68670;48.720;9.118;2023-04-06T02:38:28;96976.81;;;-0.74;63.98
79242;BME280;68670;48.720;9.118;2023-04-06T02:40:53;96976.47;;;-0.71;66.13
79242;BME280;68670;48.720;9.118;2023-04-06T02:43:19;96976.81;;;-0.74;66.00
79242;BME280;68670;48.720;9.118;2023-04-06T02:45:47;96970.25;;;-0.71;66.07
79242;BME280;68670;48.720;9.118;2023-04-06T02:48:12;96970.94;;;-0.77;64.34
79242;BME280;68670;48.720;9.118;2023-04-06T02:50:37;96975.97;;;-0.74;65.47
79242;BME280;68670;48.720;9.118;2023-04-06T02:53:05;96967.72;;;-0.81;65.84
79242;BME280;68670;48.720;9.118;2023-04-06T02:55:30;96970.44;;;-0.97;65.21
79242;BME280;68670;48.720;9.118;2023-04-06T02:57:58;96966.09;;;-1.06;66.34
79242;BME280;68670;48.720;9.118;2023-04-06T03:00:24;96966.94;;;-1.06;67.02
79242;BME280;68670;48.720;9.118;2023-04-06T03:02:49;96967.25;;;-1.09;66.76
79242;BME280;68670;48.720;9.118;2023-04-06T03:05:19;96959.69;;;-1.13;67.35
79242;BME280;68670;48.720;9.118;2023-04-06T03:07:47;96967.44;;;-1.18;66.85
79242;BME280;68670;48.720;9.118;2023-04-06T03:10:12;96962.72;;;-1.24;67.32
79242;BME280;68670;48.720;9.118;2023-04-06T03:12:37;96967.09;;;-1.40;67.26
79242;BME280;68670;48.720;9.118;2023-04-06T03:15:03;96963.38;;;-1.55;67.78
79242;BME280;68670;48.720;9.118;2023-04-06T03:17:29;96966.38;;;-1.58;67.89
79242;BME280;68670;48.720;9.118;2023-04-06T03:19:54;96961.72;;;-1.64;68.69
79242;BME280;68670;48.720;9.118;2023-04-06T03:22:19;96972.78;;;-1.51;69.80
79242;BME280;68670;48.720;9.118;2023-04-06T03:24:50;96967.09;;;-1.48;68.54
79242;BME280;68670;48.720;9.118;2023-04-06T03:27:15;96951.28;;;-1.51;68.96
79242;BME280;68670;48.720;9.118;2023-04-06T03:29:43;96967.72;;;-1.62;68.18
79242;BME280;68670;48.720;9.118;2023-04-06T03:32:08;96967.22;;;-1.57;67.66
79242;BME280;68670;48.720;9.118;2023-04-06T03:34:37;96967.75;;;-1.54;68.48
79242;BME280;68670;48.720;9.118;2023-04-06T03:37:02;96961.03;;;-1.66;68.54
79242;BME280;68670;48.720;9.118;2023-04-06T03:39:28;96964.03;;;-1.61;67.86
79242;BME280;68670;48.720;9.118;2023-04-06T03:41:56;96967.06;;;-1.64;68.24
79242;BME280;68670;48.720;9.118;2023-04-06T03:44:26;96962.03;;;-1.51;68.59
79242;BME280;68670;48.720;9.118;2023-04-06T03:46:53;96972.13;;;-1.45;68.64
79242;BME280;68670;48.720;9.118;2023-04-06T03:49:19;96976.66;;;-1.45;68.08
79242;BME280;68670;48.720;9.118;2023-04-06T03:51:44;96965.59;;;-1.42;68.69
79242;BME280;68670;48.720;9.118;2023-04-06T03:54:12;96974.47;;;-1.42;68.57
79242;BME280;68670;48.720;9.118;2023-04-06T03:56:37;96970.44;;;-1.46;69.41
79242;BME280;68670;48.720;9.118;2023-04-06T03:59:03;96975.81;;;-1.46;69.01
79242;BME280;68670;48.720;9.118;2023-04-06T04:01:31;96977.16;;;-1.50;71.06
79242;BME280;68670;48.720;9.118;2023-04-06T04:04:00;96979.50;;;-1.47;71.69
79242;BME280;68670;48.720;9.118;2023-04-06T04:06:25;96977.81;;;-1.48;72.42
79242;BME280;68670;48.720;9.118;2023-04-06T04:08:51;96978.16;;;-1.51;70.99
79242;BME280;68670;48.720;9.118;2023-04-06T04:11:16;96980.50;;;-1.56;71.58
79242;BME280;68670;48.720;9.118;2023-04-06T04:13:41;96992.78;;;-1.45;67.35
79242;BME280;68670;48.720;9.118;2023-04-06T04:16:09;96987.06;;;-1.42;69.70
79242;BME280;68670;48.720;9.118;2023-04-06T04:18:37;96992.78;;;-1.37;68.34
79242;BME280;68670;48.720;9.118;2023-04-06T04:21:02;96996.31;;;-1.37;68.17
79242;BME280;68670;48.720;9.118;2023-04-06T04:23:27;96992.78;;;-1.45;67.69
79242;BME280;68670;48.720;9.118;2023-04-06T04:25:55;96999.63;;;-1.51;67.85
79242;BME280;68670;48.720;9.118;2023-04-06T04:28:25;96989.56;;;-1.57;68.33
79242;BME280;68670;48.720;9.118;2023-04-06T04:30:52;96993.59;;;-1.45;67.72
79242;BME280;68670;48.720;9.118;2023-04-06T04:33:18;96994.94;;;-1.57;70.09
79242;BME280;68670;48.720;9.118;2023-04-06T04:35:43;96992.72;;;-1.61;68.61
79242;BME280;68670;48.720;9.118;2023-04-06T04:38:08;96995.78;;;-1.64;68.58
79242;BME280;68670;48.720;9.118;2023-04-06T04:40:36;96992.72;;;-1.61;69.36
79242;BME280;68670;48.720;9.118;2023-04-06T04:43:04;96991.88;;;-1.62;69.71
79242;BME280;68670;48.720;9.118;2023-04-06T04:45:32;96990.88;;;-1.61;69.53
79242;BME280;68670;48.720;9.118;2023-04-06T04:47:59;97000.31;;;-1.65;68.57
79242;BME280;68670;48.720;9.118;2023-04-06T04:50:30;96993.88;;;-1.80;69.79
79242;BME280;68670;48.720;9.118;2023-04-06T04:52:59;97000.94;;;-1.79;69.67
79242;BME280;68670;48.720;9.118;2023-04-06T04:55:27;97001.25;;;-1.82;69.49
79242;BME280;68670;48.720;9.118;2023-04-06T04:57:56;97002.56;;;-1.86;69.52
79242;BME280;68670;48.720;9.118;2023-04-06T05:00:22;97006.25;;;-1.87;70.35
79242;BME280;68670;48.720;9.118;2023-04-06T05:02:47;97006.25;;;-1.87;70.23
79242;BME280;68670;48.720;9.118;2023-04-06T05:05:13;97006.94;;;-1.85;70.17
79242;BME280;68670;48.720;9.118;2023-04-06T05:07:41;97005.97;;;-1.76;70.76
79242;BME280;68670;48.720;9.118;2023-04-06T05:10:06;97007.66;;;-1.75;71.74
79242;BME280;68670;48.720;9.118;2023-04-06T05:12:32;97011.34;;;-1.76;70.26
79242;BME280;68670;48.720;9.118;2023-04-06T05:14:57;97013.53;;;-1.72;69.97
79242;BME280;68670;48.720;9.118;2023-04-06T05:17:23;97015.03;;;-1.77;70.09
79242;BME280;68670;48.720;9.118;2023-04-06T05:19:48;97020.78;;;-1.64;70.54
79242;BME280;68670;48.720;9.118;2023-04-06T05:22:16;97016.72;;;-1.60;71.71
79242;BME280;68670;48.720;9.118;2023-04-06T05:24:43;97020.44;;;-1.53;71.15
79242;BME280;68670;48.720;9.118;2023-04-06T05:27:08;97018.78;;;-1.46;70.66
79242;BME280;68670;48.720;9.118;2023-04-06T05:29:39;97017.44;;;-1.50;70.28
79242;BME280;68670;48.720;9.118;2023-04-06T05:32:05;97018.13;;;-1.40;71.88
79242;BME280;68670;48.720;9.118;2023-04-06T05:34:33;97014.13;;;-1.36;70.14
79242;BME280;68670;48.720;9.118;2023-04-06T05:36:58;97021.69;;;-1.31;69.87
79242;BME280;68670;48.720;9.118;2023-04-06T05:39:26;97019.63;;;-1.29;70.51
79242;BME280;68670;48.720;9.118;2023-04-06T05:41:54;97018.81;;;-1.38;70.95
79242;BME280;68670;48.720;9.118;2023-04-06T05:44:22;97022.84;;;-1.33;70.19
79242;BME280;68670;48.720;9.118;2023-04-06T05:46:49;97022.53;;;-1.30;69.68
79242;BME280;68670;48.720;9.118;2023-04-06T05:49:14;97032.06;;;-1.28;69.58
79242;BME280;68670;48.720;9.118;2023-04-06T05:51:42;97032.56;;;-1.24;68.88
79242;BME280;68670;48.720;9.118;2023-04-06T05:54:12;97035.63;;;-1.11;68.85
79242;BME280;68670;48.720;9.118;2023-04-06T05:56:37;97030.44;;;-1.05;68.40
79242;BME280;68670;48.720;9.118;2023-04-06T05:59:05;97028.09;;;-0.99;68.32
79242;BME280;68670;48.720;9.118;2023-04-06T06:01:35;97032.94;;;-0.87;68.93
79242;BME280;68670;48.720;9.118;2023-04-06T06:04:04;97037.97;;;-0.76;69.06
79242;BME280;68670;48.720;9.118;2023-04-06T06:06:29;97030.75;;;-0.67;70.02
79242;BME280;68670;48.720;9.118;2023-04-06T06:08:57;97043.16;;;-0.58;69.38
79242;BME280;68670;48.720;9.118;2023-04-06T06:11:28;97046.69;;;-0.49;70.59
79242;BME280;68670;48.720;9.118;2023-04-06T06:13:56;97045.00;;;-0.42;67.96
79242;BME280;68670;48.720;9.118;2023-04-06T06:16:21;97048.69;;;-0.35;67.86
79242;BME280;68670;48.720;9.118;2023-04-06T06:18:47;97050.34;;;-0.26;67.87
79242;BME280;68670;48.720;9.118;2023-04-06T06:21:13;97048.63;;;-0.11;67.35
79242;BME280;68670;48.720;9.118;2023-04-06T06:23:42;97048.91;;;0.03;68.22
79242;BME280;68670;48.720;9.118;2023-04-06T06:26:10;97043.81;;;0.16;68.07
79242;BME280;68670;48.720;9.118;2023-04-06T06:28:36;97041.69;;;0.34;68.48
79242;BME280;68670;48.720;9.118;2023-04-06T06:31:03;97038.94;;;0.50;67.92
79242;BME280;68670;48.720;9.118;2023-04-06T06:33:29;97043.59;;;0.64;67.19
79242;BME280;68670;48.720;9.118;2023-04-06T06:35:54;97036.41;;;0.80;67.68
79242;BME280;68670;48.720;9.118;2023-04-06T06:38:22;97033.28;;;0.91;67.01
79242;BME280;68670;48.720;9.118;2023-04-06T06:40:47;97043.94;;;1.07;67.40
79242;BME280;68670;48.720;9.118;2023-04-06T06:43:12;97045.03;;;1.21;67.02
79242;BME280;68670;48.720;9.118;2023-04-06T06:45:38;97043.69;;;1.40;66.06
79242;BME280;68670;48.720;9.118;2023-04-06T06:48:03;97038.50;;;1.53;65.74
79242;BME280;68670;48.720;9.118;2023-04-06T06:50:33;97031.53;;;1.58;65.41
79242;BME280;68670;48.720;9.118;2023-04-06T06:52:59;97032.94;;;1.69;66.54
79242;BME280;68670;48.720;9.118;2023-04-06T06:55:24;97028.47;;;1.76;65.54
79242;BME280;68670;48.720;9.118;2023-04-06T06:57:52;97045.38;;;1.93;63.99
79242;BME280;68670;48.720;9.118;2023-04-06T07:00:20;97043.03;;;2.05;61.87
79242;BME280;68670;48.720;9.118;2023-04-06T07:02:51;97043.41;;;2.16;61.90
79242;BME280;68670;48.720;9.118;2023-04-06T07:05:16;97036.69;;;2.27;62.21
79242;BME280;68670;48.720;9.118;2023-04-06T07:07:42;97040.59;;;2.39;62.43
79242;BME280;68670;48.720;9.118;2023-04-06T07:10:08;97038.25;;;2.51;62.38
79242;BME280;68670;48.720;9.118;2023-04-06T07:12:35;97041.28;;;2.62;60.25
79242;BME280;68670;48.720;9.118;2023-04-06T07:15:01;97041.91;;;2.79;60.28
79242;BME280;68670;48.720;9.118;2023-04-06T07:17:26;97038.53;;;2.92;58.46
79242;BME280;68670;48.720;9.118;2023-04-06T07:19:51;97046.00;;;3.11;59.04
79242;BME280;68670;48.720;9.118;2023-04-06T07:22:17;97045.41;;;3.37;55.35
79242;BME280;68670;48.720;9.118;2023-04-06T07:24:42;97046.09;;;3.67;51.21
79242;BME280;68670;48.720;9.118;2023-04-06T07:27:10;97052.91;;;3.84;50.84
79242;BME280;68670;48.720;9.118;2023-04-06T07:29:38;97042.94;;;3.91;49.69
79242;BME280;68670;48.720;9.118;2023-04-06T07:32:06;97046.78;;;4.03;49.93
79242;BME280;68670;48.720;9.118;2023-04-06T07:34:31;97049.81;;;4.22;50.36
79242;BME280;68670;48.720;9.118;2023-04-06T07:36:59;97042.88;;;4.47;50.76
79242;BME280;68670;48.720;9.118;2023-04-06T07:39:26;97035.94;;;4.86;48.10
79242;BME280;68670;48.720;9.118;2023-04-06T07:41:54;97039.84;;;5.84;45.29
79242;BME280;68670;48.720;9.118;2023-04-06T07:44:20;97028.41;;;7.04;43.87
79242;BME280;68670;48.720;9.118;2023-04-06T07:46:45;97030.38;;;8.09;40.74
79242;BME280;68670;48.720;9.118;2023-04-06T07:49:13;97029.22;;;8.79;37.39
79242;BME280;68670;48.720;9.118;2023-04-06T07:51:41;97023.19;;;9.78;37.69
79242;BME280;68670;48.720;9.118;2023-04-06T07:54:07;97025.53;;;10.63;35.44
79242;BME280;68670;48.720;9.118;2023-04-06T07:56:35;97013.06;;;11.35;33.32
79242;BME280;68670;48.720;9.118;2023-04-06T07:59:05;97015.09;;;11.85;32.00
79242;BME280;68670;48.720;9.118;2023-04-06T08:01:30;97020.94;;;12.22;33.12
79242;BME280;68670;48.720;9.118;2023-04-06T08:03:56;97009.25;;;12.70;31.36
79242;BME280;68670;48.720;9.118;2023-04-06T08:06:27;97012.38;;;12.96;29.68
79242;BME280;68670;48.720;9.118;2023-04-06T08:08:52;97010.00;;;12.83;30.97
79242;BME280;68670;48.720;9.118;2023-04-06T08:11:20;97009.75;;;12.67;31.53
79242;BME280;68670;48.720;9.118;2023-04-06T08:13:49;97024.97;;;12.03;34.16
79242;BME280;68670;48.720;9.118;2023-04-06T08:16:15;97014.03;;;11.58;31.29
79242;BME280;68670;48.720;9.118;2023-04-06T08:18:40;97011.47;;;11.39;32.80
79242;BME280;68670;48.720;9.118;2023-04-06T08:21:08;97023.03;;;11.13;33.00
79242;BME280;68670;48.720;9.118;2023-04-06T08:23:33;97020.13;;;10.80;34.03
79242;BME280;68670;48.720;9.118;2023-04-06T08:25:59;97021.25;;;10.67;34.40
79242;BME280;68670;48.720;9.118;2023-04-06T08:28:32;97022.44;;;11.11;32.51
79242;BME280;68670;48.720;9.118;2023-04-06T08:31:03;97017.84;;;11.73;30.97
79242;BME280;68670;48.720;9.118;2023-04-06T08:33:28;97016.66;;;11.81;30.10
79242;BME280;68670;48.720;9.118;2023-04-06T08:35:54;97017.84;;;12.19;29.73
79242;BME280;68670;48.720;9.118;2023-04-06T08:38:21;97016.19;;;12.18;35.09
79242;BME280;68670;48.720;9.118;2023-04-06T08:40:49;97011.44;;;12.30;31.01
79242;BME280;68670;48.720;9.118;2023-04-06T08:43:18;97013.69;;;12.33;33.55
79242;BME280;68670;48.720;9.118;2023-04-06T08:45:45;97017.09;;;12.06;31.00
79242;BME280;68670;48.720;9.118;2023-04-06T08:48:11;97012.38;;;11.00;31.33
79242;BME280;68670;48.720;9.118;2023-04-06T08:50:38;97018.63;;;10.49;33.41
79242;BME280;68670;48.720;9.118;2023-04-06T08:53:05;97012.44;;;10.06;35.26
79242;BME280;68670;48.720;9.118;2023-04-06T08:55:31;97018.19;;;9.75;35.23
79242;BME280;68670;48.720;9.118;2023-04-06T08:57:59;97016.25;;;9.52;34.58
79242;BME280;68670;48.720;9.118;2023-04-06T09:00:25;97006.56;;;9.68;34.97
79242;BME280;68670;48.720;9.118;2023-04-06T09:02:53;97010.53;;;10.42;33.66
79242;BME280;68670;48.720;9.118;2023-04-06T09:05:25;97015.31;;;10.47;34.59
79242;BME280;68670;48.720;9.118;2023-04-06T09:07:53;97005.91;;;10.42;33.14
79242;BME280;68670;48.720;9.118;2023-04-06T09:10:18;97007.94;;;10.35;32.55
79242;BME280;68670;48.720;9.118;2023-04-06T09:12:45;97002.66;;;10.10;29.84
79242;BME280;68670;48.720;9.118;2023-04-06T09:15:19;97009.63;;;10.36;32.56
79242;BME280;68670;48.720;9.118;2023-04-06T09:17:49;97000.81;;;10.23;31.76
79242;BME280;68670;48.720;9.118;2023-04-06T09:20:25;97005.19;;;10.47;32.22
79242;BME280;68670;48.720;9.118;2023-04-06T09:22:51;97007.72;;;10.37;33.59
79242;BME280;68670;48.720;9.118;2023-04-06T09:25:20;97010.88;;;11.09;33.76
79242;BME280;68670;48.720;9.118;2023-04-06T09:27:48;97004.38;;;11.72;30.04
79242;BME280;68670;48.720;9.118;2023-04-06T09:30:15;97014.84;;;12.20;29.05
79242;BME280;68670;48.720;9.118;2023-04-06T09:35:12;97006.63;;;12.97;28.11
79242;BME280;68670;48.720;9.118;2023-04-06T09:37:38;97009.91;;;12.39;27.45
79242;BME280;68670;48.720;9.118;2023-04-06T09:40:05;97011.22;;;12.92;27.07
79242;BME280;68670;48.720;9.118;2023-04-06T09:42:32;97011.44;;;12.68;27.56
79242;BME280;68670;48.720;9.118;2023-04-06T09:45:01;97008.34;;;12.09;28.25
79242;BME280;68670;48.720;9.118;2023-04-06T09:47:26;97000.31;;;12.58;26.67
79242;BME280;68670;48.720;9.118;2023-04-06T09:49:58;97007.59;;;12.69;27.57
79242;BME280;68670;48.720;9.118;2023-04-06T09:52:27;96994.81;;;13.45;28.32
79242;BME280;68670;48.720;9.118;2023-04-06T09:54:59;96989.72;;;13.86;25.99
79242;BME280;68670;48.720;9.118;2023-04-06T09:57:32;96982.41;;;14.39;25.69
79242;BME280;68670;48.720;9.118;2023-04-06T10:00:06;96982.03;;;14.62;24.44
79242;BME280;68670;48.720;9.118;2023-04-06T10:07:53;96985.25;;;14.91;24.28
79242;BME280;68670;48.720;9.118;2023-04-06T10:10:23;96989.16;;;15.05;26.28
79242;BME280;68670;48.720;9.118;2023-04-06T10:12:49;96991.38;;;14.51;28.32
79242;BME280;68670;48.720;9.118;2023-04-06T10:15:15;96976.06;;;15.43;26.33
79242;BME280;68670;48.720;9.118;2023-04-06T10:17:41;96984.44;;;15.01;25.63
79242;BME280;68670;48.720;9.118;2023-04-06T10:20:15;96994.66;;;13.84;25.63
79242;BME280;68670;48.720;9.118;2023-04-06T10:22:45;96987.94;;;14.39;29.17
79242;BME280;68670;48.720;9.118;2023-04-06T10:25:34;96986.97;;;14.55;24.23
79242;BME280;68670;48.720;9.118;2023-04-06T10:28:09;96983.19;;;13.65;26.17
79242;BME280;68670;48.720;9.118;2023-04-06T10:30:42;96976.38;;;14.05;26.78
79242;BME280;68670;48.720;9.118;2023-04-06T10:33:14;96981.28;;;14.35;26.78
79242;BME280;68670;48.720;9.118;2023-04-06T10:35:40;96978.75;;;14.60;25.97
79242;BME280;68670;48.720;9.118;2023-04-06T10:38:05;96981.88;;;14.05;24.90
79242;BME280;68670;48.720;9.118;2023-04-06T10:40:37;96964.63;;;15.09;26.56
79242;BME280;68670;48.720;9.118;2023-04-06T10:43:11;96968.53;;;15.28;23.76
79242;BME280;68670;48.720;9.118;2023-04-06T10:45:38;96963.09;;;15.49;23.71
79242;BME280;68670;48.720;9.118;2023-04-06T10:48:22;96963.75;;;16.17;25.70
79242;BME280;68670;48.720;9.118;2023-04-06T10:50:50;96973.66;;;15.92;23.85
79242;BME280;68670;48.720;9.118;2023-04-06T10:53:25;96963.69;;;15.66;25.74
79242;BME280;68670;48.720;9.118;2023-04-06T10:55:52;96967.06;;;14.90;27.22
79242;BME280;68670;48.720;9.118;2023-04-06T10:58:18;96959.16;;;15.29;24.01
79242;BME280;68670;48.720;9.118;2023-04-06T11:00:48;96959.84;;;15.67;23.80
79242;BME280;68670;48.720;9.118;2023-04-06T11:03:16;96959.59;;;16.14;25.10
79242;BME280;68670;48.720;9.118;2023-04-06T11:05:48;96964.03;;;16.20;25.32
79242;BME280;68670;48.720;9.118;2023-04-06T11:08:26;96966.47;;;16.37;23.73
79242;BME280;68670;48.720;9.118;2023-04-06T11:11:12;96955.38;;;16.77;23.65
79242;BME280;68670;48.720;9.118;2023-04-06T11:13:46;96956.47;;;16.87;21.68
79242;BME280;68670;48.720;9.118;2023-04-06T11:16:13;96958.66;;;17.49;21.73
79242;BME280;68670;48.720;9.118;2023-04-06T11:18:47;96956.00;;;16.19;22.19
79242;BME280;68670;48.720;9.118;2023-04-06T11:21:12;96947.16;;;15.76;23.89
79242;BME280;68670;48.720;9.118;2023-04-06T11:23:38;96945.72;;;15.53;24.12
79242;BME280;68670;48.720;9.118;2023-04-06T11:26:12;96939.00;;;15.13;23.61
79242;BME280;68670;48.720;9.118;2023-04-06T11:28:43;96943.84;;;16.09;22.63
79242;BME280;68670;48.720;9.118;2023-04-06T11:31:09;96934.41;;;16.51;21.59
79242;BME280;68670;48.720;9.118;2023-04-06T11:33:39;96934.41;;;16.41;21.42
79242;BME280;68670;48.720;9.118;2023-04-06T11:36:07;96929.81;;;14.98;21.93
79242;BME280;68670;48.720;9.118;2023-04-06T11:38:33;96931.63;;;16.51;21.72
79242;BME280;68670;48.720;9.118;2023-04-06T11:40:58;96914.31;;;17.05;22.51
79242;BME280;68670;48.720;9.118;2023-04-06T11:43:32;96933.22;;;16.88;21.75
79242;BME280;68670;48.720;9.118;2023-04-06T11:46:02;96915.41;;;17.09;22.63
79242;BME280;68670;48.720;9.118;2023-04-06T11:48:28;96905.25;;;17.43;24.19
79242;BME280;68670;48.720;9.118;2023-04-06T11:51:01;96917.00;;;17.64;21.15
79242;BME280;68670;48.720;9.118;2023-04-06T11:53:29;96913.66;;;17.72;21.36
79242;BME280;68670;48.720;9.118;2023-04-06T11:55:55;96912.28;;;16.56;21.80
79242;BME280;68670;48.720;9.118;2023-04-06T11:58:24;96920.59;;;16.36;21.72
79242;BME280;68670;48.720;9.118;2023-04-06T12:00:50;96910.56;;;16.75;21.63
79242;BME280;68670;48.720;9.118;2023-04-06T12:03:20;96905.25;;;17.43;20.53
79242;BME280;68670;48.720;9.118;2023-04-06T12:05:45;96900.34;;;17.30;20.76
79242;BME280;68670;48.720;9.118;2023-04-06T12:08:10;96903.00;;;17.51;22.17
79242;BME280;68670;48.720;9.118;2023-04-06T12:10:36;96906.91;;;17.44;21.28
79242;BME280;68670;48.720;9.118;2023-04-06T12:13:04;96894.47;;;17.42;21.20
79242;BME280;68670;48.720;9.118;2023-04-06T12:15:32;96904.19;;;17.34;24.23
79242;BME280;68670;48.720;9.118;2023-04-06T12:18:03;96895.56;;;17.85;22.46
79242;BME280;68670;48.720;9.118;2023-04-06T12:20:28;96894.56;;;18.05;21.80
79242;BME280;68670;48.720;9.118;2023-04-06T12:22:56;96894.00;;;18.32;23.66
79242;BME280;68670;48.720;9.118;2023-04-06T12:25:21;96890.19;;;18.81;21.09
79242;BME280;68670;48.720;9.118;2023-04-06T12:27:47;96881.84;;;19.23;20.33
79242;BME280;68670;48.720;9.118;2023-04-06T12:30:12;96880.69;;;19.67;20.09
79242;BME280;68670;48.720;9.118;2023-04-06T12:32:38;96878.66;;;19.54;18.93
79242;BME280;68670;48.720;9.118;2023-04-06T12:35:03;96879.69;;;19.39;18.88
79242;BME280;68670;48.720;9.118;2023-04-06T12:37:31;96883.13;;;18.11;19.80
79242;BME280;68670;48.720;9.118;2023-04-06T12:39:56;96874.22;;;17.86;23.52
79242;BME280;68670;48.720;9.118;2023-04-06T12:42:25;96869.84;;;17.35;20.39
79242;BME280;68670;48.720;9.118;2023-04-06T12:44:53;96881.53;;;16.58;21.10
79242;BME280;68670;48.720;9.118;2023-04-06T12:47:18;96879.59;;;16.63;24.62
79242;BME280;68670;48.720;9.118;2023-04-06T12:49:50;96872.25;;;17.03;21.84
79242;BME280;68670;48.720;9.118;2023-04-06T12:52:15;96867.06;;;16.91;22.07
79242;BME280;68670;48.720;9.118;2023-04-06T12:54:41;96871.91;;;17.20;20.67
79242;BME280;68670;48.720;9.118;2023-04-06T12:57:07;96868.28;;;16.70;23.49
79242;BME280;68670;48.720;9.118;2023-04-06T12:59:34;96871.97;;;16.25;23.43
79242;BME280;68670;48.720;9.118;2023-04-06T13:02:00;96862.00;;;16.29;22.94
79242;BME280;68670;48.720;9.118;2023-04-06T13:04:26;96870.56;;;16.37;22.23
79242;BME280;68670;48.720;9.118;2023-04-06T13:06:51;96861.81;;;16.90;21.77
79242;BME280;68670;48.720;9.118;2023-04-06T13:09:17;96853.59;;;17.63;25.05
79242;BME280;68670;48.720;9.118;2023-04-06T13:11:44;96856.56;;;17.37;19.81